Time;durP1;ratioP1;P1;durP2;ratioP2;P2;SDS_P1;SDS_P2;PMS_P1;PMS_P2;Temp;Humidity;BMP_temperature;BMP_pressure;BME280_temperature;BME280_humidity;BME280_pressure;Samples;Min_cycle;Max_cycle;Signal;HPM_P1;HPM_P2
2024/05/04 00:01:14;;;;;;;;;;;21.20;50.30;;;;;;5457974;26;1135;-89
2024/05/04 00:03:39;;;;;;;;;;;21.20;50.00;;;;;;5426853;26;1230;-89
2024/05/04 00:06:05;;;;;;;;;;;21.10;50.00;;;;;;5458285;26;1026;-89
2024/05/04 00:08:30;;;;;;;;;;;21.20;50.10;;;;;;5426609;26;1821;-89
2024/05/04 00:10:55;;;;;;;;;;;21.20;49.90;;;;;;5458139;26;1046;-89
2024/05/04 00:13:21;;;;;;;;;;;21.20;50.10;;;;;;5458175;26;866;-89
2024/05/04 00:15:46;;;;;;;;;;;21.20;50.00;;;;;;5426206;26;1170;-90
2024/05/04 00:18:12;;;;;;;;;;;21.20;49.90;;;;;;5458254;26;1029;-89
2024/05/04 00:20:37;;;;;;;;;;;21.10;50.00;;;;;;5457816;26;1151;-89
2024/05/04 00:23:02;;;;;;;;;;;21.20;49.90;;;;;;5426190;26;1201;-89
2024/05/04 00:25:28;;;;;;;;;;;21.10;49.90;;;;;;5426032;26;1602;-89
2024/05/04 00:27:53;;;;;;;;;;;21.10;49.90;;;;;;5425792;26;1863;-89
2024/05/04 00:30:18;;;;;;;;;;;21.10;49.80;;;;;;5457466;26;938;-89
2024/05/04 00:32:45;;;;;;;;;;;21.10;49.80;;;;;;5425994;26;1224;-89
2024/05/04 00:35:13;;;;;;;;;;;21.10;49.90;;;;;;5426101;26;1335;-89
2024/05/04 00:37:39;;;;;;;;;;;21.10;49.70;;;;;;5425602;26;1171;-90
2024/05/04 00:40:04;;;;;;;;;;;21.10;49.80;;;;;;5457508;26;858;-89
2024/05/04 00:42:29;;;;;;;;;;;21.10;49.70;;;;;;5425420;26;1574;-90
2024/05/04 00:44:55;;;;;;;;;;;21.10;49.70;;;;;;5457709;26;883;-90
2024/05/04 00:47:20;;;;;;;;;;;21.10;49.60;;;;;;5457638;26;1864;-91
2024/05/04 00:49:45;;;;;;;;;;;21.10;49.70;;;;;;5457291;26;1064;-91
2024/05/04 00:52:11;;;;;;;;;;;21.10;50.40;;;;;;5458070;26;981;-91
2024/05/04 00:54:37;;;;;;;;;;;21.10;49.70;;;;;;5457659;26;1533;-91
2024/05/04 00:57:02;;;;;;;;;;;21.10;49.60;;;;;;5457753;26;891;-91
2024/05/04 00:59:28;;;;;;;;;;;21.10;49.50;;;;;;5425819;26;1189;-91
2024/05/04 01:01:53;;;;;;;;;;;21.10;49.60;;;;;;5457027;26;1049;-91
2024/05/04 01:04:19;;;;;;;;;;;21.10;49.50;;;;;;5426449;26;1289;-91
2024/05/04 01:06:44;;;;;;;;;;;21.10;49.60;;;;;;5457359;26;981;-91
2024/05/04 01:09:10;;;;;;;;;;;21.10;49.60;;;;;;5425408;26;1835;-91
2024/05/04 01:11:35;;;;;;;;;;;21.10;49.50;;;;;;5457100;26;879;-91
2024/05/04 01:14:00;;;;;;;;;;;21.10;49.50;;;;;;5457177;26;993;-91
2024/05/04 01:16:26;;;;;;;;;;;21.10;49.50;;;;;;5456762;26;1070;-91
2024/05/04 01:18:51;;;;;;;;;;;21.10;49.40;;;;;;5457072;26;1173;-91
2024/05/04 01:21:16;;;;;;;;;;;21.10;49.50;;;;;;5457012;26;1570;-91
2024/05/04 01:23:42;;;;;;;;;;;21.10;49.30;;;;;;5425363;26;1328;-91
2024/05/04 01:26:07;;;;;;;;;;;21.10;49.50;;;;;;5456991;26;1022;-91
2024/05/04 01:28:32;;;;;;;;;;;21.00;49.20;;;;;;5425159;26;1822;-91
2024/05/04 01:30:58;;;;;;;;;;;21.00;49.30;;;;;;5456976;26;961;-91
2024/05/04 01:33:24;;;;;;;;;;;21.10;49.40;;;;;;5456666;26;1054;-91
2024/05/04 01:35:49;;;;;;;;;;;21.00;49.20;;;;;;5425320;26;1519;-91
2024/05/04 01:38:15;;;;;;;;;;;21.00;49.20;;;;;;5425408;26;1312;-91
2024/05/04 01:40:42;;;;;;;;;;;21.00;49.20;;;;;;5425191;26;1170;-91
2024/05/04 01:43:08;;;;;;;;;;;21.00;49.20;;;;;;5424989;26;1326;-91
2024/05/04 01:45:33;;;;;;;;;;;21.00;49.00;;;;;;5456851;26;906;-91
2024/05/04 01:47:59;;;;;;;;;;;21.00;49.20;;;;;;5456800;26;1814;-91
2024/05/04 01:50:24;;;;;;;;;;;21.00;49.10;;;;;;5456241;26;1439;-91
2024/05/04 01:52:49;;;;;;;;;;;21.00;49.10;;;;;;5425102;26;1342;-91
2024/05/04 01:55:15;;;;;;;;;;;21.00;49.00;;;;;;5457861;26;1010;-91
2024/05/04 01:57:40;;;;;;;;;;;21.00;49.10;;;;;;5459996;26;851;-91
2024/05/04 02:00:09;;;;;;;;;;;21.00;49.00;;;;;;5459761;26;1069;-91
2024/05/04 02:02:34;;;;;;;;;;;21.00;48.90;;;;;;5428371;26;1220;-91
2024/05/04 02:05:00;;;;;;;;;;;21.00;49.00;;;;;;5460368;26;1588;-91
2024/05/04 02:07:25;;;;;;;;;;;21.00;49.00;;;;;;5459585;26;1857;-91
2024/05/04 02:09:50;;;;;;;;;;;21.00;49.00;;;;;;5428223;26;1268;-91
2024/05/04 02:12:16;;;;;;;;;;;21.00;48.90;;;;;;5459713;26;851;-91
2024/05/04 02:14:41;;;;;;;;;;;21.00;48.90;;;;;;5428113;26;1221;-90
2024/05/04 02:17:06;;;;;;;;;;;21.00;48.90;;;;;;5459661;26;1422;-90
2024/05/04 02:19:32;;;;;;;;;;;21.00;49.00;;;;;;5459349;26;1711;-89
2024/05/04 02:21:57;;;;;;;;;;;21.00;48.80;;;;;;5402901;26;1498;-90
2024/05/04 02:24:23;;;;;;;;;;;21.00;48.80;;;;;;5423163;26;1026;-89
2024/05/04 02:26:48;;;;;;;;;;;21.00;48.80;;;;;;5392212;26;1238;-89
2024/05/04 02:29:13;;;;;;;;;;;21.00;48.90;;;;;;5447101;26;1853;-90
2024/05/04 02:31:39;;;;;;;;;;;21.00;48.80;;;;;;5458201;26;1644;-89
2024/05/04 02:34:04;;;;;;;;;;;21.00;48.80;;;;;;5421524;26;1201;-90
2024/05/04 02:36:30;;;;;;;;;;;21.00;48.80;;;;;;5423270;26;926;-90
2024/05/04 02:38:55;;;;;;;;;;;21.00;48.80;;;;;;5431040;26;1617;-90
2024/05/04 02:41:20;;;;;;;;;;;21.00;48.80;;;;;;5396283;26;1485;-90
2024/05/04 02:43:46;;;;;;;;;;;21.00;48.70;;;;;;5423178;26;992;-90
2024/05/04 02:46:11;;;;;;;;;;;20.90;48.70;;;;;;5423266;26;1046;-90
2024/05/04 02:48:36;;;;;;;;;;;20.90;48.70;;;;;;5423307;26;1818;-90
2024/05/04 02:51:02;;;;;;;;;;;20.90;48.70;;;;;;5479507;26;1510;-90
2024/05/04 02:53:27;;;;;;;;;;;20.90;48.70;;;;;;5463407;26;1287;-89
2024/05/04 02:55:52;;;;;;;;;;;20.90;48.70;;;;;;5495724;26;1037;-90
2024/05/04 02:58:18;;;;;;;;;;;20.90;48.80;;;;;;5463192;26;1326;-90
2024/05/04 03:00:43;;;;;;;;;;;20.90;48.60;;;;;;5464789;26;1698;-89
2024/05/04 03:03:08;;;;;;;;;;;20.90;48.70;;;;;;5459350;26;1068;-90
2024/05/04 03:05:34;;;;;;;;;;;20.90;48.60;;;;;;5427940;26;1264;-90
2024/05/04 03:07:59;;;;;;;;;;;20.90;48.60;;;;;;5459612;26;1814;-90
2024/05/04 03:10:25;;;;;;;;;;;20.90;48.60;;;;;;5459657;26;1073;-90
2024/05/04 03:12:50;;;;;;;;;;;20.90;48.60;;;;;;5492200;26;1589;-90
2024/05/04 03:15:15;;;;;;;;;;;20.90;48.70;;;;;;5496227;26;1078;-91
2024/05/04 03:17:41;;;;;;;;;;;20.90;48.70;;;;;;5464414;26;1693;-89
2024/05/04 03:20:12;;;;;;;;;;;20.90;48.60;;;;;;5458896;26;1171;-90
2024/05/04 03:22:37;;;;;;;;;;;20.90;49.20;;;;;;5425249;26;1458;-89
2024/05/04 03:25:03;;;;;;;;;;;20.90;48.50;;;;;;5458892;26;889;-89
2024/05/04 03:27:28;;;;;;;;;;;20.90;48.60;;;;;;5458738;26;1843;-89
2024/05/04 03:29:53;;;;;;;;;;;20.90;48.50;;;;;;5427524;26;1273;-90
2024/05/04 03:32:19;;;;;;;;;;;20.90;48.60;;;;;;5458467;26;1726;-90
2024/05/04 03:34:44;;;;;;;;;;;20.90;48.60;;;;;;5427147;26;1150;-90
2024/05/04 03:37:10;;;;;;;;;;;20.90;48.60;;;;;;5459340;26;1057;-90
2024/05/04 03:39:35;;;;;;;;;;;20.90;48.60;;;;;;5427178;26;1227;-90
2024/05/04 03:42:00;;;;;;;;;;;20.90;48.70;;;;;;5427405;26;1174;-90
2024/05/04 03:44:26;;;;;;;;;;;20.90;48.50;;;;;;5447668;26;1615;-90
2024/05/04 03:46:51;;;;;;;;;;;20.90;48.50;;;;;;5427462;26;1806;-90
2024/05/04 03:49:16;;;;;;;;;;;20.90;48.50;;;;;;5458951;26;1005;-90
2024/05/04 03:51:42;;;;;;;;;;;20.90;48.60;;;;;;5426974;26;1393;-90
2024/05/04 03:54:07;;;;;;;;;;;20.90;48.40;;;;;;5458654;26;917;-90
2024/05/04 03:56:32;;;;;;;;;;;20.90;48.60;;;;;;5454372;26;1523;-89
2024/05/04 03:58:58;;;;;;;;;;;20.90;48.50;;;;;;5427867;26;1577;-91
2024/05/04 04:01:23;;;;;;;;;;;20.90;48.60;;;;;;5458498;26;1076;-91
2024/05/04 04:03:48;;;;;;;;;;;20.90;48.50;;;;;;5459297;26;1069;-90
2024/05/04 04:06:14;;;;;;;;;;;20.90;48.50;;;;;;5399121;26;1617;-90
2024/05/04 04:08:39;;;;;;;;;;;20.90;48.50;;;;;;5422925;26;1822;-90
2024/05/04 04:11:05;;;;;;;;;;;20.80;48.50;;;;;;5422677;26;1046;-90
2024/05/04 04:13:30;;;;;;;;;;;20.80;48.30;;;;;;5391270;26;1162;-90
2024/05/04 04:15:55;;;;;;;;;;;20.90;48.50;;;;;;5400782;26;1608;-89
2024/05/04 04:18:21;;;;;;;;;;;20.90;48.60;;;;;;5457544;26;970;-90
2024/05/04 04:20:46;;;;;;;;;;;20.90;48.50;;;;;;5427099;26;1443;-90
2024/05/04 04:23:11;;;;;;;;;;;20.80;48.40;;;;;;5426640;26;1365;-90
2024/05/04 04:25:37;;;;;;;;;;;20.90;48.50;;;;;;5458407;26;836;-90
2024/05/04 04:28:02;;;;;;;;;;;20.90;48.50;;;;;;5468613;26;1865;-90
2024/05/04 04:30:28;;;;;;;;;;;20.80;48.60;;;;;;5458905;26;1254;-90
2024/05/04 04:32:53;;;;;;;;;;;20.90;48.50;;;;;;5426866;26;1712;-90
2024/05/04 04:35:18;;;;;;;;;;;20.90;48.40;;;;;;5458263;26;973;-90
2024/05/04 04:37:44;;;;;;;;;;;20.90;48.50;;;;;;5440269;26;1619;-90
2024/05/04 04:40:09;;;;;;;;;;;20.90;48.50;;;;;;5427622;26;1507;-90
2024/05/04 04:42:34;;;;;;;;;;;20.90;48.60;;;;;;5458351;26;1089;-90
2024/05/04 04:45:00;;;;;;;;;;;20.90;48.50;;;;;;5426684;26;1213;-90
2024/05/04 04:47:25;;;;;;;;;;;20.90;48.50;;;;;;5425991;26;1855;-90
2024/05/04 04:49:50;;;;;;;;;;;20.90;48.50;;;;;;5457864;26;1496;-90
2024/05/04 04:52:16;;;;;;;;;;;20.90;48.40;;;;;;5426093;26;1424;-90
2024/05/04 04:54:41;;;;;;;;;;;20.80;48.40;;;;;;5421885;26;933;-90
2024/05/04 04:57:06;;;;;;;;;;;20.80;48.30;;;;;;5421578;26;997;-90
2024/05/04 04:59:32;;;;;;;;;;;20.80;48.40;;;;;;5466430;26;1616;-90
2024/05/04 05:01:57;;;;;;;;;;;20.80;48.40;;;;;;5453287;26;1565;-91
2024/05/04 05:04:22;;;;;;;;;;;20.80;48.40;;;;;;5448319;26;1237;-91
2024/05/04 05:06:48;;;;;;;;;;;20.80;48.40;;;;;;5479002;26;1116;-90
2024/05/04 05:09:13;;;;;;;;;;;20.80;48.50;;;;;;5476312;26;1868;-90
2024/05/04 05:11:39;;;;;;;;;;;20.80;48.40;;;;;;5479228;26;1135;-89
2024/05/04 05:14:04;;;;;;;;;;;20.80;48.50;;;;;;5479325;26;802;-89
2024/05/04 05:16:29;;;;;;;;;;;20.80;48.40;;;;;;5479394;26;1005;-89
2024/05/04 05:18:55;;;;;;;;;;;20.90;48.60;;;;;;5459278;26;1500;-89
2024/05/04 05:21:20;;;;;;;;;;;20.80;48.40;;;;;;5443482;26;1501;-90
2024/05/04 05:23:45;;;;;;;;;;;20.80;48.40;;;;;;5439506;26;978;-90
2024/05/04 05:26:11;;;;;;;;;;;20.80;48.40;;;;;;5440117;26;1127;-90
2024/05/04 05:28:36;;;;;;;;;;;20.80;48.40;;;;;;5439192;26;1813;-90
2024/05/04 05:31:02;;;;;;;;;;;20.80;48.50;;;;;;5430962;26;1500;-90
2024/05/04 05:33:27;;;;;;;;;;;20.80;48.50;;;;;;5457225;26;929;-90
2024/05/04 05:35:52;;;;;;;;;;;20.80;48.40;;;;;;5457051;26;926;-90
2024/05/04 05:38:18;;;;;;;;;;;20.80;48.40;;;;;;5457121;26;1088;-90
2024/05/04 05:40:43;;;;;;;;;;;20.80;48.50;;;;;;5425885;26;1272;-90
2024/05/04 05:43:08;;;;;;;;;;;20.80;48.40;;;;;;5428365;26;1513;-90
2024/05/04 05:45:34;;;;;;;;;;;20.80;48.40;;;;;;5421459;26;941;-90
2024/05/04 05:47:59;;;;;;;;;;;20.80;48.40;;;;;;5390017;26;1817;-90
2024/05/04 05:50:25;;;;;;;;;;;20.80;48.60;;;;;;5420967;26;1164;-90
2024/05/04 05:52:50;;;;;;;;;;;20.80;48.50;;;;;;5423886;26;1524;-90
2024/05/04 05:55:15;;;;;;;;;;;20.90;48.50;;;;;;5420764;26;1014;-90
2024/05/04 05:57:41;;;;;;;;;;;20.90;48.50;;;;;;5421755;26;922;-90
2024/05/04 06:00:06;;;;;;;;;;;20.80;48.50;;;;;;5421136;26;1022;-90
2024/05/04 06:02:31;;;;;;;;;;;20.80;48.40;;;;;;5406708;26;1483;-90
2024/05/04 06:04:58;;;;;;;;;;;20.80;48.40;;;;;;5421612;26;1491;-90
2024/05/04 06:07:24;;;;;;;;;;;20.90;49.10;;;;;;5389931;26;1858;-90
2024/05/04 06:09:49;;;;;;;;;;;20.90;48.50;;;;;;5420984;26;1017;-90
2024/05/04 06:12:14;;;;;;;;;;;20.90;48.50;;;;;;5420799;26;912;-90
2024/05/04 06:14:40;;;;;;;;;;;20.80;48.40;;;;;;5420381;26;998;-90
2024/05/04 06:17:05;;;;;;;;;;;20.90;48.50;;;;;;5452892;26;1529;-90
2024/05/04 06:19:30;;;;;;;;;;;20.90;48.60;;;;;;5424984;26;1353;-90
2024/05/04 06:21:56;;;;;;;;;;;20.90;48.50;;;;;;5456648;26;950;-90
2024/05/04 06:24:21;;;;;;;;;;;20.90;48.60;;;;;;5422503;26;1304;-91
2024/05/04 06:26:47;;;;;;;;;;;20.90;48.70;;;;;;5420649;26;805;-91
2024/05/04 06:29:12;;;;;;;;;;;20.90;48.80;;;;;;5420745;26;1821;-90
2024/05/04 06:31:37;;;;;;;;;;;20.80;51.20;;;;;;5420766;26;1089;-91
2024/05/04 06:34:05;;;;;;;;;;;20.80;51.60;;;;;;5420771;26;852;-90
2024/05/04 06:36:31;;;;;;;;;;;20.90;53.50;;;;;;5411034;26;1339;-90
2024/05/04 06:38:56;;;;;;;;;;;20.90;55.70;;;;;;5418756;26;1284;-91
2024/05/04 06:41:21;;;;;;;;;;;20.90;50.60;;;;;;5422133;26;1026;-91
2024/05/04 06:43:47;;;;;;;;;;;20.80;49.00;;;;;;5424356;26;1005;-90
2024/05/04 06:46:12;;;;;;;;;;;20.80;51.60;;;;;;5435585;26;1528;-91
2024/05/04 06:48:37;;;;;;;;;;;20.80;52.80;;;;;;5460066;26;1867;-91
2024/05/04 06:51:03;;;;;;;;;;;20.80;50.90;;;;;;5460616;26;909;-90
2024/05/04 06:53:28;;;;;;;;;;;20.80;51.40;;;;;;5461759;26;843;-90
2024/05/04 06:55:53;;;;;;;;;;;20.90;53.10;;;;;;5460303;26;855;-90
2024/05/04 06:58:19;;;;;;;;;;;20.90;53.70;;;;;;5488009;26;1529;-92
2024/05/04 07:00:44;;;;;;;;;;;20.90;54.20;;;;;;5496420;26;858;-90
2024/05/04 07:03:10;;;;;;;;;;;20.90;53.30;;;;;;5496229;26;1135;-90
2024/05/04 07:05:35;;;;;;;;;;;20.80;53.50;;;;;;5495860;26;1369;-91
2024/05/04 07:08:00;;;;;;;;;;;20.80;52.20;;;;;;5496647;26;1865;-91
2024/05/04 07:10:26;;;;;;;;;;;20.90;53.60;;;;;;5464962;26;1222;-90
2024/05/04 07:12:51;;;;;;;;;;;20.90;54.20;;;;;;5496317;26;930;-90
2024/05/04 07:15:16;;;;;;;;;;;20.90;53.80;;;;;;5465120;26;1269;-90
2024/05/04 07:17:42;;;;;;;;;;;20.90;53.60;;;;;;5464532;26;1311;-90
2024/05/04 07:20:07;;;;;;;;;;;20.90;53.60;;;;;;5472908;26;1397;-90
2024/05/04 07:22:32;;;;;;;;;;;20.90;53.70;;;;;;5496363;26;954;-90
2024/05/04 07:24:59;;;;;;;;;;;20.90;53.70;;;;;;5496433;26;939;-90
2024/05/04 07:27:24;;;;;;;;;;;20.90;53.60;;;;;;5462089;26;1851;-90
2024/05/04 07:29:49;;;;;;;;;;;20.90;53.50;;;;;;5496805;26;989;-90
2024/05/04 07:32:15;;;;;;;;;;;20.90;53.40;;;;;;5496334;26;900;-90
2024/05/04 07:34:40;;;;;;;;;;;20.90;53.40;;;;;;5464451;26;1180;-90
2024/05/04 07:37:05;;;;;;;;;;;21.00;53.40;;;;;;5496731;26;933;-90
2024/05/04 07:39:31;;;;;;;;;;;21.00;53.40;;;;;;5485525;26;1541;-90
2024/05/04 07:41:56;;;;;;;;;;;21.00;53.40;;;;;;5496012;26;909;-90
2024/05/04 07:44:21;;;;;;;;;;;21.00;53.40;;;;;;5464182;26;1307;-89
2024/05/04 07:46:49;;;;;;;;;;;21.00;53.40;;;;;;5464095;26;1193;-90
2024/05/04 07:49:14;;;;;;;;;;;21.00;53.30;;;;;;5462770;26;1840;-90
2024/05/04 07:51:39;;;;;;;;;;;21.00;53.30;;;;;;5475360;26;1385;-89
2024/05/04 07:54:05;;;;;;;;;;;21.00;53.20;;;;;;5426960;26;1236;-90
2024/05/04 07:56:30;;;;;;;;;;;21.00;52.90;;;;;;5428102;26;1256;-90
2024/05/04 07:58:56;;;;;;;;;;;21.00;52.80;;;;;;5462219;26;1449;-91
2024/05/04 08:01:21;;;;;;;;;;;21.00;52.70;;;;;;5459189;26;1249;-90
2024/05/04 08:03:46;;;;;;;;;;;21.00;53.30;;;;;;5459442;26;1082;-90
2024/05/04 08:06:13;;;;;;;;;;;21.00;52.70;;;;;;5459122;26;851;-90
2024/05/04 08:08:38;;;;;;;;;;;21.00;52.50;;;;;;5427808;26;1821;-90
2024/05/04 08:11:03;;;;;;;;;;;21.00;52.70;;;;;;5460909;26;1306;-91
2024/05/04 08:13:29;;;;;;;;;;;21.00;52.60;;;;;;5459394;26;887;-91
2024/05/04 08:15:54;;;;;;;;;;;21.00;52.40;;;;;;5459054;26;906;-92
2024/05/04 08:18:19;;;;;;;;;;;21.00;52.50;;;;;;5458812;26;1129;-90
2024/05/04 08:20:45;;;;;;;;;;;21.00;52.50;;;;;;5461107;26;1457;-90
2024/05/04 08:23:10;;;;;;;;;;;21.00;52.50;;;;;;5458636;26;1052;-91
2024/05/04 08:25:35;;;;;;;;;;;21.00;52.40;;;;;;5458119;26;1000;-90
2024/05/04 08:28:01;;;;;;;;;;;21.00;52.20;;;;;;5427255;26;1856;-91
2024/05/04 08:30:26;;;;;;;;;;;21.00;52.20;;;;;;5427673;26;1205;-90
2024/05/04 08:32:52;;;;;;;;;;;21.00;52.20;;;;;;5484562;26;1524;-90
2024/05/04 08:35:17;;;;;;;;;;;21.10;52.20;;;;;;5463828;26;1241;-92
2024/05/04 08:37:42;;;;;;;;;;;21.10;52.10;;;;;;5495378;26;1017;-90
2024/05/04 08:40:08;;;;;;;;;;;21.10;52.00;;;;;;5496497;26;955;-91
2024/05/04 08:42:33;;;;;;;;;;;21.10;51.90;;;;;;5441163;26;1410;-91
2024/05/04 08:44:59;;;;;;;;;;;21.10;52.20;;;;;;5391913;26;1182;-91
2024/05/04 08:47:24;;;;;;;;;;;21.10;52.20;;;;;;5424538;26;1849;-91
2024/05/04 08:49:49;;;;;;;;;;;21.10;52.10;;;;;;5425325;26;1025;-91
2024/05/04 08:52:15;;;;;;;;;;;21.10;52.20;;;;;;5397380;26;1166;-91
2024/05/04 08:54:40;;;;;;;;;;;21.10;52.00;;;;;;5460819;26;1526;-92
2024/05/04 08:57:05;;;;;;;;;;;21.10;51.90;;;;;;5431462;26;1177;-91
2024/05/04 08:59:31;;;;;;;;;;;21.10;51.90;;;;;;5462870;26;943;-91
2024/05/04 09:01:56;;;;;;;;;;;21.10;51.80;;;;;;5466491;26;1253;-92
2024/05/04 09:04:22;;;;;;;;;;;21.10;51.80;;;;;;5443164;26;1328;-91
2024/05/04 09:06:47;;;;;;;;;;;21.10;51.70;;;;;;5449303;26;1159;-91
2024/05/04 09:09:12;;;;;;;;;;;21.10;51.70;;;;;;5449083;26;1833;-92
2024/05/04 09:11:38;;;;;;;;;;;21.10;51.70;;;;;;5449235;26;1263;-91
2024/05/04 09:14:03;;;;;;;;;;;21.10;51.60;;;;;;5449140;26;1617;-92
2024/05/04 09:16:28;;;;;;;;;;;21.10;51.60;;;;;;5415043;26;1477;-92
2024/05/04 09:18:54;;;;;;;;;;;21.20;51.60;;;;;;5443288;26;1172;-90
2024/05/04 09:21:19;;;;;;;;;;;21.20;51.60;;;;;;5443562;26;1124;-92
2024/05/04 09:23:44;;;;;;;;;;;21.20;51.60;;;;;;5413502;26;1302;-91
2024/05/04 09:26:10;;;;;;;;;;;21.20;51.50;;;;;;5443552;26;1113;-89
2024/05/04 09:28:35;;;;;;;;;;;21.20;51.50;;;;;;5443403;26;1850;-92
2024/05/04 09:31:01;;;;;;;;;;;21.20;51.50;;;;;;5413351;26;1306;-91
2024/05/04 09:33:26;;;;;;;;;;;21.20;51.50;;;;;;5413354;26;1243;-92
2024/05/04 09:35:51;;;;;;;;;;;21.20;51.50;;;;;;5438619;26;926;-91
2024/05/04 09:38:17;;;;;;;;;;;21.20;51.40;;;;;;5405534;26;1181;-91
2024/05/04 09:40:42;;;;;;;;;;;21.20;51.40;;;;;;5404993;26;1205;-91
2024/05/04 09:43:07;;;;;;;;;;;21.20;51.30;;;;;;5422711;26;1080;-92
2024/05/04 09:45:33;;;;;;;;;;;21.20;51.30;;;;;;5390735;26;1161;-92
2024/05/04 09:47:58;;;;;;;;;;;21.20;51.30;;;;;;5421423;26;1848;-91
2024/05/04 09:50:23;;;;;;;;;;;21.20;51.20;;;;;;5390506;26;1178;-92
2024/05/04 09:52:49;;;;;;;;;;;21.20;51.20;;;;;;5390424;26;1163;-92
2024/05/04 09:55:15;;;;;;;;;;;21.20;51.20;;;;;;5421443;26;1073;-91
2024/05/04 09:57:40;;;;;;;;;;;21.20;51.20;;;;;;5390151;26;1304;-93
2024/05/04 10:00:06;;;;;;;;;;;21.20;51.20;;;;;;5389699;26;1330;-92
2024/05/04 10:02:31;;;;;;;;;;;21.20;51.20;;;;;;5389950;26;1181;-91
2024/05/04 10:04:57;;;;;;;;;;;21.20;51.10;;;;;;5420900;26;1025;-92
2024/05/04 10:07:22;;;;;;;;;;;21.20;51.20;;;;;;5421791;26;1864;-92
2024/05/04 10:09:48;;;;;;;;;;;21.20;51.20;;;;;;5421689;26;1108;-91
2024/05/04 10:12:14;;;;;;;;;;;21.20;51.20;;;;;;5391031;26;1295;-92
2024/05/04 10:14:39;;;;;;;;;;;21.20;51.50;;;;;;5421836;26;1097;-91
2024/05/04 10:17:05;;;;;;;;;;;21.20;51.40;;;;;;5423460;26;1066;-91
2024/05/04 10:19:30;;;;;;;;;;;21.30;51.30;;;;;;5425039;26;1186;-92
2024/05/04 10:21:55;;;;;;;;;;;21.20;51.30;;;;;;5424858;26;1014;-92
2024/05/04 10:24:21;;;;;;;;;;;21.30;51.30;;;;;;5393845;26;1434;-91
2024/05/04 10:26:46;;;;;;;;;;;21.30;51.40;;;;;;5424974;26;1030;-92
2024/05/04 10:29:11;;;;;;;;;;;21.30;51.40;;;;;;5424551;26;1841;-91
2024/05/04 10:31:37;;;;;;;;;;;21.30;51.40;;;;;;5424070;26;1090;-91
2024/05/04 10:34:03;;;;;;;;;;;21.30;51.50;;;;;;5392915;26;1289;-91
2024/05/04 10:36:28;;;;;;;;;;;21.20;51.60;;;;;;5392777;26;1463;-91
2024/05/04 10:38:53;;;;;;;;;;;21.30;51.70;;;;;;5424921;26;1050;-92
2024/05/04 10:41:19;;;;;;;;;;;21.30;51.60;;;;;;5424110;26;919;-91
2024/05/04 10:43:44;;;;;;;;;;;21.30;51.50;;;;;;5423868;26;986;-92
2024/05/04 10:46:09;;;;;;;;;;;21.30;51.50;;;;;;5424524;26;901;-92
2024/05/04 10:48:35;;;;;;;;;;;21.30;51.50;;;;;;5392487;26;1834;-92
2024/05/04 10:51:00;;;;;;;;;;;21.30;51.40;;;;;;5392824;26;1404;-92
2024/05/04 10:53:25;;;;;;;;;;;21.30;51.50;;;;;;5423818;26;1132;-92
2024/05/04 10:55:51;;;;;;;;;;;21.30;51.30;;;;;;5424040;26;897;-92
2024/05/04 10:58:16;;;;;;;;;;;21.30;51.40;;;;;;5423976;26;1014;-91
2024/05/04 11:00:42;;;;;;;;;;;21.30;51.20;;;;;;5423647;26;917;-91
2024/05/04 11:03:07;;;;;;;;;;;21.30;51.30;;;;;;5392520;26;1166;-91
2024/05/04 11:05:32;;;;;;;;;;;21.30;51.30;;;;;;5423782;26;857;-91
2024/05/04 11:07:58;;;;;;;;;;;21.40;51.40;;;;;;5392415;26;1860;-92
2024/05/04 11:10:24;;;;;;;;;;;21.40;51.30;;;;;;5423902;26;909;-91
2024/05/04 11:12:49;;;;;;;;;;;21.30;51.40;;;;;;5423749;26;857;-91
2024/05/04 11:15:15;;;;;;;;;;;21.30;51.40;;;;;;5423771;26;887;-91
2024/05/04 11:17:40;;;;;;;;;;;21.30;51.40;;;;;;5424143;26;950;-91
2024/05/04 11:20:23;;;;;;;;;;;21.30;51.50;;;;;;5423365;26;1184;-92
2024/05/04 11:22:49;;;;;;;;;;;21.30;51.50;;;;;;5393241;26;1213;-92
2024/05/04 11:25:14;;;;;;;;;;;21.30;51.70;;;;;;5424609;26;1053;-93
2024/05/04 11:27:39;;;;;;;;;;;21.40;51.90;;;;;;5391667;26;1814;-92
2024/05/04 11:30:05;;;;;;;;;;;21.40;51.90;;;;;;5392054;26;1416;-92
2024/05/04 11:32:30;;;;;;;;;;;21.40;51.80;;;;;;5423922;26;1001;-92
2024/05/04 11:34:55;;;;;;;;;;;21.40;51.70;;;;;;5423560;26;858;-92
2024/05/04 11:37:21;;;;;;;;;;;21.40;51.70;;;;;;5423868;26;1017;-92
2024/05/04 11:39:46;;;;;;;;;;;21.40;51.60;;;;;;5424018;26;958;-92
2024/05/04 11:42:12;;;;;;;;;;;21.40;51.40;;;;;;5424373;26;1004;-92
2024/05/04 11:44:37;;;;;;;;;;;21.40;51.30;;;;;;5424332;26;852;-92
2024/05/04 11:47:02;;;;;;;;;;;21.40;51.20;;;;;;5423576;26;1862;-92
2024/05/04 11:49:28;;;;;;;;;;;21.40;51.10;;;;;;5393148;26;1178;-92
2024/05/04 11:51:53;;;;;;;;;;;21.40;50.80;;;;;;5423505;26;907;-91
2024/05/04 11:54:19;;;;;;;;;;;21.30;51.10;;;;;;5423934;26;1073;-93
2024/05/04 11:56:44;;;;;;;;;;;21.40;51.20;;;;;;5392709;26;1173;-92
2024/05/04 11:59:09;;;;;;;;;;;21.40;51.30;;;;;;5423448;26;946;-91
2024/05/04 12:01:35;;;;;;;;;;;21.40;51.30;;;;;;5392116;26;1258;-92
2024/05/04 12:04:00;;;;;;;;;;;21.40;51.10;;;;;;5392363;26;1274;-92
2024/05/04 12:06:25;;;;;;;;;;;21.40;51.10;;;;;;5423373;26;1030;-92
2024/05/04 12:08:51;;;;;;;;;;;21.40;51.30;;;;;;5423413;26;1821;-92
2024/05/04 12:11:16;;;;;;;;;;;21.50;51.10;;;;;;5423239;26;1089;-92
2024/05/04 12:13:42;;;;;;;;;;;21.50;51.00;;;;;;5393021;26;1217;-92
2024/05/04 12:16:07;;;;;;;;;;;21.40;50.90;;;;;;5390901;26;1391;-92
2024/05/04 12:18:32;;;;;;;;;;;21.50;51.10;;;;;;5423332;26;946;-91
2024/05/04 12:20:58;;;;;;;;;;;21.50;50.90;;;;;;5423233;26;1240;-92
2024/05/04 12:23:23;;;;;;;;;;;21.50;50.90;;;;;;5422865;26;1017;-92
2024/05/04 12:25:50;;;;;;;;;;;21.50;50.90;;;;;;5422935;26;967;-92
2024/05/04 12:28:15;;;;;;;;;;;21.50;50.80;;;;;;5391785;26;1811;-92
2024/05/04 12:30:41;;;;;;;;;;;21.50;50.80;;;;;;5391893;26;1181;-92
2024/05/04 12:33:06;;;;;;;;;;;21.50;50.60;;;;;;5422814;26;915;-92
2024/05/04 12:35:31;;;;;;;;;;;21.50;50.80;;;;;;5423248;26;894;-91
2024/05/04 12:37:57;;;;;;;;;;;21.50;50.70;;;;;;5423074;26;851;-90
2024/05/04 12:40:22;;;;;;;;;;;21.50;50.80;;;;;;5390939;26;1198;-92
2024/05/04 12:42:47;;;;;;;;;;;21.50;50.80;;;;;;5423092;26;923;-92
2024/05/04 12:45:14;;;;;;;;;;;21.50;50.70;;;;;;5422871;26;1076;-92
2024/05/04 12:47:39;;;;;;;;;;;21.50;50.80;;;;;;5423000;26;1835;-92
2024/05/04 12:50:05;;;;;;;;;;;21.50;50.70;;;;;;5391897;26;1216;-92
2024/05/04 12:52:30;;;;;;;;;;;21.50;50.70;;;;;;5423492;26;846;-91
2024/05/04 12:54:55;;;;;;;;;;;21.50;50.60;;;;;;5391910;26;1236;-92
2024/05/04 12:57:21;;;;;;;;;;;21.50;50.50;;;;;;5422736;26;894;-92
2024/05/04 12:59:46;;;;;;;;;;;21.50;50.50;;;;;;5422525;26;1001;-91
2024/05/04 13:02:11;;;;;;;;;;;21.60;50.60;;;;;;5422593;26;1080;-91
2024/05/04 13:04:37;;;;;;;;;;;21.50;50.60;;;;;;5423362;26;1101;-92
2024/05/04 13:07:03;;;;;;;;;;;21.50;50.60;;;;;;5423404;26;1803;-92
2024/05/04 13:09:28;;;;;;;;;;;21.60;50.70;;;;;;5422052;26;848;-92
2024/05/04 13:11:54;;;;;;;;;;;21.60;50.90;;;;;;5423032;26;1030;-92
2024/05/04 13:14:19;;;;;;;;;;;21.60;50.70;;;;;;5424255;26;864;-92
2024/05/04 13:16:44;;;;;;;;;;;21.50;50.60;;;;;;5426592;26;844;-92
2024/05/04 13:19:10;;;;;;;;;;;21.60;50.90;;;;;;5443209;26;1135;-90
2024/05/04 13:21:35;;;;;;;;;;;21.50;50.70;;;;;;5443632;26;1077;-91
2024/05/04 13:24:00;;;;;;;;;;;21.60;50.70;;;;;;5443534;26;1089;-93
2024/05/04 13:26:28;;;;;;;;;;;21.60;50.70;;;;;;5413386;26;1158;-92
2024/05/04 13:28:53;;;;;;;;;;;21.60;50.60;;;;;;5443140;26;1819;-93
2024/05/04 13:31:19;;;;;;;;;;;21.60;50.70;;;;;;5443438;26;1077;-92
2024/05/04 13:33:44;;;;;;;;;;;21.60;50.70;;;;;;5443293;26;861;-92
2024/05/04 13:36:10;;;;;;;;;;;21.60;50.60;;;;;;5443311;26;842;-91
2024/05/04 13:38:35;;;;;;;;;;;21.60;50.90;;;;;;5443193;26;917;-91
2024/05/04 13:41:00;;;;;;;;;;;21.60;50.90;;;;;;5443190;26;912;-91
2024/05/04 13:43:26;;;;;;;;;;;21.60;51.00;;;;;;5443133;26;916;-92
2024/05/04 13:45:51;;;;;;;;;;;21.60;51.20;;;;;;5442969;26;1061;-92
2024/05/04 13:48:17;;;;;;;;;;;21.60;51.20;;;;;;5439014;26;1810;-91
2024/05/04 13:50:42;;;;;;;;;;;21.60;51.30;;;;;;5436940;26;1097;-92
2024/05/04 13:53:07;;;;;;;;;;;21.60;51.50;;;;;;5439489;26;897;-91
2024/05/04 13:55:33;;;;;;;;;;;21.50;51.50;;;;;;5401007;26;1276;-94
2024/05/04 13:57:58;;;;;;;;;;;21.50;51.60;;;;;;5425608;26;865;-91
2024/05/04 14:00:24;;;;;;;;;;;21.50;51.70;;;;;;5394524;26;1186;-92
2024/05/04 14:02:49;;;;;;;;;;;21.50;52.40;;;;;;5394161;26;1197;-92
2024/05/04 14:05:14;;;;;;;;;;;21.50;51.90;;;;;;5425327;26;1050;-92
2024/05/04 14:07:40;;;;;;;;;;;21.60;51.90;;;;;;5425714;26;1844;-92
2024/05/04 14:10:05;;;;;;;;;;;21.60;51.90;;;;;;5425629;26;1065;-92
2024/05/04 14:12:30;;;;;;;;;;;21.60;52.00;;;;;;5425111;26;946;-92
2024/05/04 14:14:56;;;;;;;;;;;21.60;52.10;;;;;;5425195;26;898;-92
2024/05/04 14:17:21;;;;;;;;;;;21.60;52.20;;;;;;5425457;26;1035;-92
2024/05/04 14:19:47;;;;;;;;;;;21.60;52.10;;;;;;5393916;26;1181;-92
2024/05/04 14:22:12;;;;;;;;;;;21.60;52.20;;;;;;5394131;26;1306;-91